createdAt,value
2022-10-10T00:00:49.896Z,4.00
2022-10-10T00:03:19.192Z,3.67
2022-10-10T00:05:48.597Z,4.20
2022-10-10T00:08:16.613Z,3.90
2022-10-10T00:10:44.645Z,3.80
2022-10-10T00:13:12.662Z,3.33
2022-10-10T00:15:40.662Z,3.50
2022-10-10T00:18:09.049Z,3.77
2022-10-10T00:20:37.143Z,3.70
2022-10-10T00:23:06.500Z,3.43
2022-10-10T00:25:34.557Z,3.60
2022-10-10T00:28:03.399Z,3.30
2022-10-10T00:30:31.689Z,3.20
2022-10-10T00:33:00.074Z,3.53
2022-10-10T00:35:28.724Z,4.37
2022-10-10T00:37:56.861Z,3.50
2022-10-10T00:40:26.538Z,4.00
2022-10-10T00:42:54.618Z,3.53
2022-10-10T00:45:29.434Z,3.10
2022-10-10T00:48:00.939Z,3.67
2022-10-10T00:50:30.085Z,4.27
2022-10-10T00:52:59.222Z,3.10
2022-10-10T00:55:28.879Z,3.40
2022-10-10T00:57:57.018Z,3.43
2022-10-10T01:00:25.049Z,3.10
2022-10-10T01:02:53.318Z,3.10
2022-10-10T01:05:21.720Z,3.00
2022-10-10T01:07:49.786Z,3.20
2022-10-10T01:10:19.321Z,2.80
2022-10-10T01:12:57.812Z,2.73
2022-10-10T01:15:30.568Z,3.00
2022-10-10T01:18:03.004Z,2.83
2022-10-10T01:20:54.481Z,3.30
2022-10-10T01:23:36.851Z,3.07
2022-10-10T01:26:17.713Z,2.73
2022-10-10T01:28:52.422Z,3.30
2022-10-10T01:31:23.518Z,3.30
2022-10-10T01:33:58.187Z,3.33
2022-10-10T01:36:33.534Z,2.90
2022-10-10T01:39:06.875Z,3.20
2022-10-10T01:41:38.527Z,3.20
2022-10-10T01:44:07.901Z,2.80
2022-10-10T01:46:35.952Z,3.33
2022-10-10T01:49:04.380Z,2.77
2022-10-10T01:51:47.649Z,3.40
2022-10-10T01:54:25.991Z,3.50
2022-10-10T01:57:01.262Z,3.67
2022-10-10T01:59:42.038Z,3.50
2022-10-10T02:02:17.427Z,3.20
2022-10-10T02:04:49.185Z,3.70
2022-10-10T02:07:20.610Z,3.83
2022-10-10T02:09:48.961Z,3.60
2022-10-10T02:12:17.429Z,3.43
2022-10-10T02:14:48.983Z,4.50
2022-10-10T02:17:18.182Z,3.93
2022-10-10T02:19:48.355Z,3.60
2022-10-10T02:22:16.531Z,3.63
2022-10-10T02:24:44.720Z,3.90
2022-10-10T02:27:15.979Z,4.27
2022-10-10T02:29:46.268Z,3.63
2022-10-10T02:32:18.577Z,4.70
2022-10-10T02:34:51.001Z,4.27
2022-10-10T02:37:19.766Z,4.07
2022-10-10T02:39:51.541Z,4.00
2022-10-10T02:42:21.994Z,4.50
2022-10-10T02:44:51.814Z,4.00
2022-10-10T02:47:20.150Z,3.67
2022-10-10T02:49:49.060Z,3.47
2022-10-10T02:52:17.841Z,4.33
2022-10-10T02:54:45.878Z,3.63
2022-10-10T02:57:14.150Z,4.93
2022-10-10T02:59:42.357Z,3.90
2022-10-10T03:02:11.788Z,4.03
2022-10-10T03:04:40.135Z,4.13
2022-10-10T03:07:08.189Z,3.00
2022-10-10T03:09:36.254Z,4.00
2022-10-10T03:12:04.490Z,3.40
2022-10-10T03:14:32.543Z,3.73
2022-10-10T03:17:00.780Z,3.40
2022-10-10T03:19:30.160Z,3.40
2022-10-10T03:21:58.212Z,2.80
2022-10-10T03:24:26.612Z,3.20
2022-10-10T03:26:54.640Z,2.97
2022-10-10T03:29:22.731Z,3.63
2022-10-10T03:31:51.645Z,2.63
2022-10-10T03:34:19.683Z,3.03
2022-10-10T03:36:49.090Z,2.60
2022-10-10T03:39:17.107Z,3.30
2022-10-10T03:41:45.400Z,3.10
2022-10-10T03:44:13.474Z,3.27
2022-10-10T03:46:41.533Z,2.93
2022-10-10T03:49:09.554Z,2.80
2022-10-10T03:51:37.614Z,3.20
2022-10-10T03:54:07.118Z,3.10
2022-10-10T03:56:35.170Z,2.83
2022-10-10T03:59:04.027Z,3.40
2022-10-10T04:01:32.261Z,3.30
2022-10-10T04:04:00.400Z,3.27
2022-10-10T04:06:28.708Z,3.30
2022-10-10T04:08:56.930Z,3.10
2022-10-10T04:11:26.537Z,2.90
2022-10-10T04:13:54.554Z,2.93
2022-10-10T04:16:22.550Z,2.67
2022-10-10T04:18:50.593Z,2.70
2022-10-10T04:21:18.662Z,2.40
2022-10-10T04:23:46.755Z,2.60
2022-10-10T04:26:14.804Z,2.53
2022-10-10T04:28:44.229Z,3.40
2022-10-10T04:31:12.229Z,3.07
2022-10-10T04:33:40.249Z,2.50
2022-10-10T04:36:08.598Z,2.90
2022-10-10T04:38:37.360Z,2.80
2022-10-10T04:41:05.628Z,2.87
2022-10-10T04:43:33.686Z,2.63
2022-10-10T04:46:03.579Z,2.50
2022-10-10T04:48:31.662Z,2.93
2022-10-10T04:51:00.896Z,2.73
2022-10-10T04:53:29.019Z,2.43
2022-10-10T04:55:57.034Z,2.53
2022-10-10T04:58:25.111Z,3.27
2022-10-10T05:00:53.852Z,2.87
2022-10-10T05:03:24.229Z,2.97
2022-10-10T05:05:52.461Z,2.67
2022-10-10T05:08:21.124Z,2.73
2022-10-10T05:10:49.642Z,2.60
2022-10-10T05:13:17.848Z,2.80
2022-10-10T05:15:46.048Z,2.80
2022-10-10T05:18:14.044Z,2.60
2022-10-10T05:20:44.041Z,3.07
2022-10-10T05:23:12.079Z,3.10
2022-10-10T05:25:40.133Z,2.83
2022-10-10T05:28:08.224Z,3.17
2022-10-10T05:30:36.230Z,2.97
2022-10-10T05:33:04.235Z,2.80
2022-10-10T05:35:32.297Z,2.97
2022-10-10T05:38:01.744Z,2.70
2022-10-10T05:40:29.833Z,3.20
2022-10-10T05:42:58.245Z,2.40
2022-10-10T05:45:26.286Z,3.20
2022-10-10T05:47:54.298Z,2.30
2022-10-10T05:50:31.685Z,3.53
2022-10-10T05:53:01.351Z,2.93
2022-10-10T05:55:29.753Z,3.23
2022-10-10T05:57:57.813Z,3.90
2022-10-10T06:00:25.883Z,3.00
2022-10-10T06:02:54.528Z,3.07
2022-10-10T06:05:22.918Z,3.00
2022-10-10T06:08:05.775Z,3.80
2022-10-10T06:10:42.059Z,3.77
2022-10-10T06:13:10.317Z,3.27
2022-10-10T06:15:38.404Z,3.17
2022-10-10T06:18:06.894Z,3.33
2022-10-10T06:20:36.290Z,3.17
2022-10-10T06:23:04.379Z,3.33
2022-10-10T06:25:42.199Z,2.80
2022-10-10T06:28:12.253Z,3.50
2022-10-10T06:30:44.239Z,2.90
2022-10-10T06:33:13.278Z,3.40
2022-10-10T06:35:42.824Z,2.73
2022-10-10T06:38:10.907Z,3.37
2022-10-10T06:40:39.335Z,3.40
2022-10-10T06:43:11.535Z,3.40
2022-10-10T06:45:42.198Z,2.73
2022-10-10T06:48:10.956Z,2.77
2022-10-10T06:50:39.163Z,3.10
2022-10-10T06:53:07.348Z,3.00
2022-10-10T06:55:35.392Z,3.50
2022-10-10T06:58:03.468Z,3.17
2022-10-10T07:00:31.545Z,3.40
2022-10-10T07:03:01.006Z,3.13
2022-10-10T07:05:29.112Z,2.90
2022-10-10T07:07:57.134Z,2.97
2022-10-10T07:10:25.319Z,2.70
2022-10-10T07:12:53.725Z,3.70
2022-10-10T07:15:22.025Z,3.80
2022-10-10T07:17:54.222Z,3.13
2022-10-10T07:20:23.944Z,2.63
2022-10-10T07:22:52.342Z,3.13
2022-10-10T07:25:20.653Z,3.27
2022-10-10T07:27:49.410Z,3.07
2022-10-10T07:30:17.775Z,3.27
2022-10-10T07:32:45.903Z,3.27
2022-10-10T07:35:14.066Z,2.90
2022-10-10T07:37:43.648Z,3.40
2022-10-10T07:40:12.257Z,3.10
2022-10-10T07:42:40.387Z,2.63
2022-10-10T07:45:10.719Z,3.67
2022-10-10T07:47:38.927Z,3.27
2022-10-10T07:50:08.755Z,2.97
2022-10-10T07:52:36.919Z,3.20
2022-10-10T07:55:07.302Z,3.30
2022-10-10T07:57:36.768Z,3.10
2022-10-10T08:00:06.889Z,2.90
2022-10-10T08:02:39.790Z,3.27
2022-10-10T08:05:08.900Z,3.13
2022-10-10T08:07:37.077Z,3.30
2022-10-10T08:10:08.365Z,3.27
2022-10-10T08:12:36.679Z,3.77
2022-10-10T08:15:05.656Z,3.90
2022-10-10T08:17:34.023Z,3.03
2022-10-10T08:20:02.062Z,3.63
2022-10-10T08:22:31.296Z,3.43
2022-10-10T08:24:59.424Z,3.30
2022-10-10T08:27:28.878Z,3.40
2022-10-10T08:29:56.925Z,3.40
2022-10-10T08:32:25.554Z,3.17
2022-10-10T08:34:53.577Z,3.13
2022-10-10T08:37:24.673Z,3.20
2022-10-10T08:39:55.229Z,3.37
2022-10-10T08:42:29.452Z,3.17
2022-10-10T08:45:00.558Z,3.70
2022-10-10T08:47:35.602Z,3.50
2022-10-10T08:50:06.314Z,3.20
2022-10-10T08:52:38.377Z,3.67
2022-10-10T08:55:09.731Z,3.17
2022-10-10T08:57:47.512Z,3.97
2022-10-10T09:00:17.969Z,3.43
2022-10-10T09:02:53.999Z,3.43
2022-10-10T09:05:29.861Z,3.90
2022-10-10T09:08:13.526Z,3.13
2022-10-10T09:10:47.137Z,3.60
2022-10-10T09:13:28.309Z,3.00
2022-10-10T09:15:58.330Z,4.30
2022-10-10T09:18:35.903Z,3.30
2022-10-10T09:21:08.292Z,3.93
2022-10-10T09:23:40.136Z,3.57
2022-10-10T09:26:11.574Z,3.17
2022-10-10T09:28:46.207Z,4.00
2022-10-10T09:31:18.033Z,4.23
2022-10-10T09:33:50.892Z,3.70
2022-10-10T09:36:22.694Z,4.23
2022-10-10T09:38:53.531Z,3.43
2022-10-10T09:41:25.735Z,4.80
2022-10-10T09:43:58.279Z,4.07
2022-10-10T09:46:26.714Z,3.90
2022-10-10T09:48:55.567Z,4.67
2022-10-10T09:51:23.667Z,4.80
2022-10-10T09:53:52.059Z,4.17
2022-10-10T09:56:22.545Z,4.60
2022-10-10T09:58:51.862Z,4.60
2022-10-10T10:01:22.764Z,3.70
2022-10-10T10:04:27.870Z,4.10
2022-10-10T10:07:07.384Z,4.70
2022-10-10T10:09:35.778Z,4.90
2022-10-10T10:12:06.404Z,5.30
2022-10-10T10:14:38.184Z,4.83
2022-10-10T10:17:09.128Z,4.53
2022-10-10T10:19:38.773Z,4.93
2022-10-10T10:22:07.117Z,4.50
2022-10-10T10:24:37.269Z,5.10
2022-10-10T10:27:15.879Z,4.43
2022-10-10T10:29:47.831Z,5.07
2022-10-10T10:32:23.550Z,4.43
2022-10-10T10:34:59.998Z,5.50
2022-10-10T10:37:32.282Z,5.63
2022-10-10T10:40:31.453Z,5.37
2022-10-10T10:43:12.040Z,5.67
2022-10-10T10:45:45.374Z,7.10
2022-10-10T10:48:23.664Z,6.57
2022-10-10T10:50:54.736Z,5.63
2022-10-10T10:53:28.310Z,4.63
2022-10-10T10:56:02.339Z,4.70
2022-10-10T10:59:22.592Z,4.87
2022-10-10T11:01:57.377Z,4.60
2022-10-10T11:05:24.737Z,4.20
2022-10-10T11:07:44.529Z,4.10
2022-10-10T11:10:18.658Z,3.90
2022-10-10T11:12:55.903Z,5.30
2022-10-10T11:15:37.507Z,4.67
2022-10-10T11:18:18.975Z,5.00
2022-10-10T11:20:51.520Z,7.77
2022-10-10T11:23:21.754Z,5.03
2022-10-10T11:25:52.057Z,4.23
2022-10-10T11:28:23.114Z,4.47
2022-10-10T11:30:55.903Z,4.30
2022-10-10T11:33:26.083Z,4.20
2022-10-10T11:36:00.310Z,4.03
2022-10-10T11:38:32.328Z,3.77
2022-10-10T11:41:03.531Z,4.10
2022-10-10T11:43:36.190Z,3.47
2022-10-10T11:46:12.590Z,3.97
2022-10-10T11:48:47.070Z,3.93
2022-10-10T11:51:23.555Z,4.53
2022-10-10T11:53:52.661Z,4.40
2022-10-10T11:56:27.888Z,4.53
2022-10-10T11:58:58.838Z,4.90
2022-10-10T12:01:29.708Z,4.80
2022-10-10T12:03:58.387Z,4.90
2022-10-10T12:06:30.225Z,5.27
2022-10-10T12:09:01.109Z,5.73
2022-10-10T12:11:33.354Z,6.53
2022-10-10T12:14:02.519Z,6.80
2022-10-10T12:16:32.941Z,6.00
2022-10-10T12:19:03.013Z,6.40
2022-10-10T12:21:32.992Z,4.43
2022-10-10T12:24:04.428Z,4.83
2022-10-10T12:27:09.734Z,4.73
2022-10-10T12:29:43.058Z,5.00
2022-10-10T12:32:28.779Z,5.43
2022-10-10T12:35:01.839Z,6.33
2022-10-10T12:37:32.771Z,5.37
2022-10-10T12:40:04.792Z,6.27
2022-10-10T12:42:34.188Z,5.50
2022-10-10T12:45:02.643Z,5.13
2022-10-10T12:48:04.415Z,5.43
2022-10-10T12:50:35.624Z,4.90
2022-10-10T12:53:06.451Z,5.87
2022-10-10T12:55:42.416Z,4.93
2022-10-10T12:58:26.044Z,5.13
2022-10-10T13:00:56.886Z,5.40
2022-10-10T13:03:29.788Z,5.60
2022-10-10T13:06:00.364Z,5.60
2022-10-10T13:08:30.188Z,6.23
2022-10-10T13:11:07.953Z,6.03
2022-10-10T13:13:36.447Z,5.27
2022-10-10T13:16:09.830Z,6.27
2022-10-10T13:18:40.548Z,6.13
2022-10-10T13:21:11.010Z,6.90
2022-10-10T13:23:42.735Z,6.20
2022-10-10T13:26:21.989Z,5.87
2022-10-10T13:28:50.785Z,6.43
2022-10-10T13:31:19.908Z,6.20
2022-10-10T13:33:48.057Z,6.10
2022-10-10T13:36:20.532Z,5.90
2022-10-10T13:38:50.342Z,5.90
2022-10-10T13:41:19.020Z,6.23
2022-10-10T13:43:47.077Z,6.20
2022-10-10T13:46:22.470Z,6.00
2022-10-10T13:48:51.688Z,5.80
2022-10-10T13:51:20.367Z,6.03
2022-10-10T13:53:52.619Z,5.30
2022-10-10T13:56:27.373Z,5.73
2022-10-10T13:58:57.369Z,5.90
2022-10-10T14:01:37.652Z,5.93
2022-10-10T14:04:20.792Z,6.00
2022-10-10T14:06:58.105Z,5.43
2022-10-10T14:09:31.025Z,5.73
2022-10-10T14:12:01.225Z,5.60
2022-10-10T14:14:35.266Z,5.80
2022-10-10T14:17:05.220Z,5.00
2022-10-10T14:19:34.283Z,6.03
2022-10-10T14:22:02.421Z,5.47
2022-10-10T14:24:32.051Z,5.50
2022-10-10T14:27:06.688Z,5.97
2022-10-10T14:29:34.836Z,5.30
2022-10-10T14:32:02.836Z,5.97
2022-10-10T14:34:30.938Z,5.40
2022-10-10T14:36:59.075Z,5.53
2022-10-10T14:39:27.152Z,6.20
2022-10-10T14:41:56.596Z,5.70
2022-10-10T14:44:24.756Z,5.70
2022-10-10T14:46:52.836Z,5.13
2022-10-10T14:49:22.404Z,5.27
2022-10-10T14:51:50.643Z,6.00
2022-10-10T14:54:18.723Z,6.03
2022-10-10T14:57:08.597Z,5.60
2022-10-10T14:59:48.981Z,5.50
2022-10-10T15:02:22.690Z,5.40
2022-10-10T15:04:51.500Z,6.57
2022-10-10T15:07:19.770Z,6.20
2022-10-10T15:12:39.256Z,5.77
2022-10-10T15:15:10.349Z,6.07
2022-10-10T15:17:38.446Z,6.27
2022-10-10T15:20:08.848Z,5.27
2022-10-10T15:22:37.467Z,5.70
2022-10-10T15:25:06.231Z,6.17
2022-10-10T15:27:34.768Z,5.10
2022-10-10T15:30:02.878Z,5.73
2022-10-10T15:32:32.343Z,5.47
2022-10-10T15:35:00.458Z,5.37
2022-10-10T15:37:28.751Z,5.00
2022-10-10T15:39:56.864Z,4.93
2022-10-10T15:42:25.088Z,5.40
2022-10-10T15:44:53.176Z,6.00
2022-10-10T15:47:21.836Z,5.93
2022-10-10T15:49:51.360Z,6.17
2022-10-10T15:52:23.073Z,5.40
2022-10-10T15:54:51.433Z,5.50
2022-10-10T15:57:20.148Z,6.13
2022-10-10T15:59:48.671Z,6.63
2022-10-10T16:02:17.120Z,5.97
2022-10-10T16:04:46.019Z,5.70
2022-10-10T16:07:34.671Z,5.57
2022-10-10T16:10:04.034Z,5.90
2022-10-10T16:12:32.169Z,6.87
2022-10-10T16:15:03.477Z,6.43
2022-10-10T16:17:34.427Z,5.83
2022-10-10T16:20:02.501Z,5.83
2022-10-10T16:22:32.053Z,6.40
2022-10-10T16:27:48.310Z,6.40
2022-10-10T16:30:16.596Z,6.30
2022-10-10T16:32:44.802Z,5.77
2022-10-10T16:35:13.002Z,6.23
2022-10-10T16:37:42.484Z,6.07
2022-10-10T16:40:11.377Z,6.53
2022-10-10T16:42:39.680Z,6.07
2022-10-10T16:45:08.959Z,6.53
2022-10-10T16:47:37.663Z,5.40
2022-10-10T16:50:06.843Z,6.00
2022-10-10T16:52:38.112Z,6.23
2022-10-10T16:55:09.322Z,6.30
2022-10-10T16:57:37.441Z,5.80
2022-10-10T17:00:06.773Z,6.83
2022-10-10T17:02:35.125Z,6.93
2022-10-10T17:05:03.284Z,6.87
2022-10-10T17:07:31.444Z,6.30
2022-10-10T17:09:59.607Z,6.30
2022-10-10T17:12:29.121Z,8.10
2022-10-10T17:14:57.232Z,6.50
2022-10-10T17:17:26.377Z,7.10
2022-10-10T17:19:55.304Z,7.00
2022-10-10T17:22:24.607Z,7.57
2022-10-10T17:24:53.694Z,6.77
2022-10-10T17:27:23.078Z,7.30
2022-10-10T17:29:54.268Z,6.10
2022-10-10T17:32:23.783Z,6.70
2022-10-10T17:34:53.561Z,7.20
2022-10-10T17:37:21.630Z,6.60
2022-10-10T17:39:49.711Z,6.27
2022-10-10T17:42:20.294Z,6.93
2022-10-10T17:44:52.502Z,6.17
2022-10-10T17:47:25.855Z,6.63
2022-10-10T17:49:57.085Z,7.30
2022-10-10T17:52:25.931Z,7.03
2022-10-10T17:54:54.735Z,6.83
2022-10-10T17:57:24.710Z,7.07
2022-10-10T17:59:52.853Z,6.80
2022-10-10T18:02:23.503Z,6.90
2022-10-10T18:04:54.401Z,6.57
2022-10-10T18:07:24.454Z,6.30
2022-10-10T18:09:53.047Z,6.77
2022-10-10T18:12:22.668Z,6.33
2022-10-10T18:14:50.971Z,6.97
2022-10-10T18:17:20.575Z,6.67
2022-10-10T18:19:49.805Z,6.50
2022-10-10T18:22:23.363Z,6.73
2022-10-10T18:24:53.955Z,6.83
2022-10-10T18:27:25.758Z,6.13
2022-10-10T18:29:58.286Z,6.10
2022-10-10T18:32:27.107Z,6.47
2022-10-10T18:34:56.858Z,6.60
2022-10-10T18:37:27.505Z,7.23
2022-10-10T18:39:56.045Z,7.07
2022-10-10T18:42:25.727Z,7.10
2022-10-10T18:44:54.564Z,6.93
2022-10-10T18:47:23.971Z,7.80
2022-10-10T18:49:52.916Z,7.27
2022-10-10T18:52:21.942Z,7.90
2022-10-10T18:54:52.229Z,7.00
2022-10-10T18:57:20.644Z,8.60
2022-10-10T18:59:49.731Z,7.90
2022-10-10T19:02:18.755Z,6.80
2022-10-10T19:04:48.784Z,7.57
2022-10-10T19:07:17.936Z,7.30
2022-10-10T19:09:46.367Z,7.50
2022-10-10T19:12:18.212Z,7.70
2022-10-10T19:14:48.553Z,7.53
2022-10-10T19:17:17.738Z,7.00
2022-10-10T19:19:48.137Z,7.23
2022-10-10T19:22:17.503Z,7.27
2022-10-10T19:24:45.552Z,8.00
2022-10-10T19:27:16.286Z,8.17
2022-10-10T19:29:45.779Z,7.80
2022-10-10T19:32:17.648Z,8.20
2022-10-10T19:34:49.085Z,7.53
2022-10-10T19:37:17.289Z,7.60
2022-10-10T19:39:45.327Z,7.53
2022-10-10T19:42:14.027Z,8.07
2022-10-10T19:44:44.587Z,7.27
2022-10-10T19:47:12.843Z,7.90
2022-10-10T19:49:41.139Z,8.17
2022-10-10T19:52:09.841Z,8.37
2022-10-10T19:54:37.983Z,7.77
2022-10-10T19:57:06.868Z,7.57
2022-10-10T19:59:35.146Z,7.80
2022-10-10T20:02:05.215Z,8.00
2022-10-10T20:04:33.278Z,7.60
2022-10-10T20:07:01.811Z,7.80
2022-10-10T20:09:32.599Z,7.83
2022-10-10T20:12:01.864Z,6.90
2022-10-10T20:14:29.941Z,7.20
2022-10-10T20:16:58.008Z,7.80
2022-10-10T20:19:28.570Z,7.97
2022-10-10T20:21:56.787Z,7.07
2022-10-10T20:24:25.864Z,7.20
2022-10-10T20:26:54.786Z,8.10
2022-10-10T20:29:23.926Z,7.50
2022-10-10T20:31:53.411Z,6.80
2022-10-10T20:34:21.889Z,7.20
2022-10-10T20:36:53.689Z,8.73
2022-10-10T20:39:21.799Z,8.97
2022-10-10T20:41:49.874Z,8.27
2022-10-10T20:44:18.438Z,9.10
2022-10-10T20:46:47.265Z,8.10
2022-10-10T20:49:17.875Z,7.70
2022-10-10T20:51:48.766Z,8.40
2022-10-10T20:54:19.313Z,8.70
2022-10-10T20:56:49.181Z,8.27
2022-10-10T20:59:17.809Z,7.83
2022-10-10T21:01:46.379Z,7.43
2022-10-10T21:04:15.147Z,8.20
2022-10-10T21:06:44.518Z,8.23
2022-10-10T21:09:14.554Z,7.20
2022-10-10T21:11:48.628Z,7.40
2022-10-10T21:14:19.188Z,7.57
2022-10-10T21:16:48.378Z,7.47
2022-10-10T21:19:16.481Z,7.23
2022-10-10T21:21:44.711Z,8.00
2022-10-10T21:24:13.423Z,9.03
2022-10-10T21:26:45.533Z,7.37
2022-10-10T21:29:13.603Z,6.90
2022-10-10T21:31:42.653Z,6.97
2022-10-10T21:34:17.435Z,7.23
2022-10-10T21:36:50.689Z,7.00
2022-10-10T21:39:18.957Z,7.47
2022-10-10T21:41:51.076Z,7.23
2022-10-10T21:44:20.730Z,7.20
2022-10-10T21:46:50.004Z,7.37
2022-10-10T21:49:19.103Z,7.40
2022-10-10T21:51:50.031Z,7.60
2022-10-10T21:54:18.116Z,8.27
2022-10-10T21:56:48.201Z,7.30
2022-10-10T21:59:17.684Z,7.97
2022-10-10T22:01:47.227Z,7.20
2022-10-10T22:04:15.976Z,7.27
2022-10-10T22:06:45.243Z,7.57
2022-10-10T22:09:14.901Z,7.93
2022-10-10T22:11:42.986Z,7.37
2022-10-10T22:14:11.053Z,7.87
2022-10-10T22:16:41.489Z,8.23
2022-10-10T22:19:10.917Z,7.70
2022-10-10T22:21:38.991Z,8.00
2022-10-10T22:24:08.544Z,7.50
2022-10-10T22:26:37.303Z,8.20
2022-10-10T22:29:06.948Z,7.73
2022-10-10T22:31:37.733Z,7.83
2022-10-10T22:34:07.630Z,7.40
2022-10-10T22:36:37.102Z,7.33
2022-10-10T22:39:07.342Z,7.60
2022-10-10T22:41:35.650Z,8.13
2022-10-10T22:44:04.404Z,7.83
2022-10-10T22:46:32.461Z,8.00
2022-10-10T22:49:01.154Z,7.90
2022-10-10T22:51:30.788Z,7.40
2022-10-10T22:53:58.827Z,7.50
2022-10-10T22:56:27.237Z,7.90
2022-10-10T22:58:55.343Z,7.63
2022-10-10T23:01:26.097Z,9.20
2022-10-10T23:03:56.344Z,8.53
2022-10-10T23:06:24.434Z,7.93
2022-10-10T23:08:55.007Z,8.40
2022-10-10T23:11:23.163Z,7.83
2022-10-10T23:13:52.103Z,8.10
2022-10-10T23:16:20.299Z,7.97
2022-10-10T23:18:49.814Z,8.23
2022-10-10T23:21:17.902Z,8.27
2022-10-10T23:23:47.398Z,8.50
2022-10-10T23:26:17.088Z,7.27
2022-10-10T23:28:46.263Z,8.33
2022-10-10T23:31:15.135Z,8.10
2022-10-10T23:33:44.921Z,8.00
2022-10-10T23:36:14.808Z,7.37
2022-10-10T23:38:44.422Z,8.00
2022-10-10T23:41:13.901Z,7.53
2022-10-10T23:43:43.284Z,8.63
2022-10-10T23:46:11.905Z,8.07
2022-10-10T23:48:39.975Z,7.20
2022-10-10T23:51:09.103Z,7.63
2022-10-10T23:53:40.880Z,8.00
2022-10-10T23:56:09.475Z,8.43
2022-10-10T23:58:37.514Z,8.87
